sensor_id;sensor_type;location;lat;lon;timestamp;P1;durP1;ratioP1;P2;durP2;ratioP2
22549;SDS011;11441;57.164;-2.120;2023-04-01T00:01:03;4.83;;;1.30;;
22549;SDS011;11441;57.164;-2.120;2023-04-01T00:03:50;4.80;;;1.23;;
22549;SDS011;11441;57.164;-2.120;2023-04-01T00:06:34;4.00;;;1.33;;
22549;SDS011;11441;57.164;-2.120;2023-04-01T00:09:01;5.03;;;0.97;;
22549;SDS011;11441;57.164;-2.120;2023-04-01T00:11:28;1.90;;;0.43;;
22549;SDS011;11441;57.164;-2.120;2023-04-01T00:13:55;3.70;;;0.97;;
22549;SDS011;11441;57.164;-2.120;2023-04-01T00:16:22;1.77;;;0.57;;
22549;SDS011;11441;57.164;-2.120;2023-04-01T00:18:49;4.67;;;1.00;;
22549;SDS011;11441;57.164;-2.120;2023-04-01T00:21:35;4.97;;;0.87;;
22549;SDS011;11441;57.164;-2.120;2023-04-01T00:24:03;6.40;;;1.50;;
22549;SDS011;11441;57.164;-2.120;2023-04-01T00:26:30;3.90;;;0.60;;
22549;SDS011;11441;57.164;-2.120;2023-04-01T00:28:56;3.80;;;0.97;;
22549;SDS011;11441;57.164;-2.120;2023-04-01T00:31:25;1.40;;;0.60;;
22549;SDS011;11441;57.164;-2.120;2023-04-01T00:33:52;3.23;;;0.87;;
22549;SDS011;11441;57.164;-2.120;2023-04-01T00:36:20;5.83;;;1.20;;
22549;SDS011;11441;57.164;-2.120;2023-04-01T00:38:50;5.77;;;1.47;;
22549;SDS011;11441;57.164;-2.120;2023-04-01T00:41:18;8.40;;;1.33;;
22549;SDS011;11441;57.164;-2.120;2023-04-01T00:43:48;6.63;;;1.60;;
22549;SDS011;11441;57.164;-2.120;2023-04-01T00:46:17;4.53;;;1.57;;
22549;SDS011;11441;57.164;-2.120;2023-04-01T00:48:46;2.93;;;1.07;;
22549;SDS011;11441;57.164;-2.120;2023-04-01T00:51:21;9.73;;;1.47;;
22549;SDS011;11441;57.164;-2.120;2023-04-01T00:53:52;4.60;;;1.47;;
22549;SDS011;11441;57.164;-2.120;2023-04-01T00:56:22;4.13;;;0.77;;
22549;SDS011;11441;57.164;-2.120;2023-04-01T00:59:04;6.27;;;1.50;;
22549;SDS011;11441;57.164;-2.120;2023-04-01T01:01:35;8.20;;;1.90;;
22549;SDS011;11441;57.164;-2.120;2023-04-01T01:04:02;4.37;;;0.73;;
22549;SDS011;11441;57.164;-2.120;2023-04-01T01:13:01;8.33;;;1.63;;
22549;SDS011;11441;57.164;-2.120;2023-04-01T01:15:28;7.57;;;1.67;;
22549;SDS011;11441;57.164;-2.120;2023-04-01T01:18:31;5.83;;;1.13;;
22549;SDS011;11441;57.164;-2.120;2023-04-01T01:24:22;6.37;;;1.50;;
22549;SDS011;11441;57.164;-2.120;2023-04-01T01:27:10;8.37;;;1.43;;
22549;SDS011;11441;57.164;-2.120;2023-04-01T01:35:38;7.90;;;1.23;;
22549;SDS011;11441;57.164;-2.120;2023-04-01T01:41:04;5.63;;;1.30;;
22549;SDS011;11441;57.164;-2.120;2023-04-01T01:43:35;4.10;;;0.80;;
22549;SDS011;11441;57.164;-2.120;2023-04-01T01:46:07;11.07;;;1.30;;
22549;SDS011;11441;57.164;-2.120;2023-04-01T01:48:38;6.40;;;1.37;;
22549;SDS011;11441;57.164;-2.120;2023-04-01T01:51:08;7.27;;;1.43;;
22549;SDS011;11441;57.164;-2.120;2023-04-01T01:53:35;5.97;;;1.80;;
22549;SDS011;11441;57.164;-2.120;2023-04-01T01:56:02;10.60;;;1.93;;
22549;SDS011;11441;57.164;-2.120;2023-04-01T02:01:26;4.00;;;1.50;;
22549;SDS011;11441;57.164;-2.120;2023-04-01T02:04:03;6.00;;;1.20;;
22549;SDS011;11441;57.164;-2.120;2023-04-01T02:06:32;9.57;;;2.37;;
22549;SDS011;11441;57.164;-2.120;2023-04-01T02:09:07;10.63;;;1.77;;
22549;SDS011;11441;57.164;-2.120;2023-04-01T02:14:05;6.97;;;1.60;;
22549;SDS011;11441;57.164;-2.120;2023-04-01T02:16:42;4.97;;;1.83;;
22549;SDS011;11441;57.164;-2.120;2023-04-01T02:19:32;5.37;;;1.20;;
22549;SDS011;11441;57.164;-2.120;2023-04-01T02:22:04;11.07;;;2.43;;
22549;SDS011;11441;57.164;-2.120;2023-04-01T02:24:36;11.17;;;3.13;;
22549;SDS011;11441;57.164;-2.120;2023-04-01T02:27:06;10.63;;;2.50;;
22549;SDS011;11441;57.164;-2.120;2023-04-01T02:29:54;6.70;;;1.53;;
22549;SDS011;11441;57.164;-2.120;2023-04-01T02:32:21;12.67;;;3.80;;
22549;SDS011;11441;57.164;-2.120;2023-04-01T02:34:48;10.23;;;1.93;;
22549;SDS011;11441;57.164;-2.120;2023-04-01T02:37:15;11.53;;;2.47;;
22549;SDS011;11441;57.164;-2.120;2023-04-01T02:39:43;7.20;;;1.80;;
22549;SDS011;11441;57.164;-2.120;2023-04-01T02:42:10;4.00;;;1.40;;
22549;SDS011;11441;57.164;-2.120;2023-04-01T02:44:36;6.30;;;1.53;;
22549;SDS011;11441;57.164;-2.120;2023-04-01T02:47:21;14.53;;;2.13;;
22549;SDS011;11441;57.164;-2.120;2023-04-01T02:49:48;5.63;;;1.23;;
22549;SDS011;11441;57.164;-2.120;2023-04-01T02:52:15;6.93;;;1.60;;
22549;SDS011;11441;57.164;-2.120;2023-04-01T02:54:41;9.43;;;1.63;;
22549;SDS011;11441;57.164;-2.120;2023-04-01T02:57:08;8.50;;;1.77;;
22549;SDS011;11441;57.164;-2.120;2023-04-01T02:59:35;8.07;;;2.30;;
22549;SDS011;11441;57.164;-2.120;2023-04-01T03:02:02;9.30;;;1.53;;
22549;SDS011;11441;57.164;-2.120;2023-04-01T03:04:29;7.83;;;1.57;;
22549;SDS011;11441;57.164;-2.120;2023-04-01T03:06:56;8.13;;;2.23;;
22549;SDS011;11441;57.164;-2.120;2023-04-01T03:09:22;11.27;;;2.10;;
22549;SDS011;11441;57.164;-2.120;2023-04-01T03:11:50;7.60;;;1.53;;
22549;SDS011;11441;57.164;-2.120;2023-04-01T03:14:17;6.17;;;1.83;;
22549;SDS011;11441;57.164;-2.120;2023-04-01T03:17:02;3.17;;;1.23;;
22549;SDS011;11441;57.164;-2.120;2023-04-01T03:19:29;4.30;;;1.00;;
22549;SDS011;11441;57.164;-2.120;2023-04-01T03:22:03;7.47;;;1.73;;
22549;SDS011;11441;57.164;-2.120;2023-04-01T03:24:29;4.87;;;1.20;;
22549;SDS011;11441;57.164;-2.120;2023-04-01T03:27:14;10.20;;;1.63;;
22549;SDS011;11441;57.164;-2.120;2023-04-01T03:29:41;5.73;;;1.03;;
22549;SDS011;11441;57.164;-2.120;2023-04-01T03:32:08;4.67;;;1.10;;
22549;SDS011;11441;57.164;-2.120;2023-04-01T03:34:34;4.10;;;1.50;;
22549;SDS011;11441;57.164;-2.120;2023-04-01T03:37:01;6.40;;;1.30;;
22549;SDS011;11441;57.164;-2.120;2023-04-01T03:39:30;10.23;;;2.07;;
22549;SDS011;11441;57.164;-2.120;2023-04-01T03:41:57;12.17;;;2.10;;
22549;SDS011;11441;57.164;-2.120;2023-04-01T03:44:25;7.37;;;1.83;;
22549;SDS011;11441;57.164;-2.120;2023-04-01T03:46:54;5.77;;;1.23;;
22549;SDS011;11441;57.164;-2.120;2023-04-01T03:49:21;5.40;;;1.60;;
22549;SDS011;11441;57.164;-2.120;2023-04-01T03:51:48;10.63;;;1.67;;
22549;SDS011;11441;57.164;-2.120;2023-04-01T03:54:15;6.50;;;1.13;;
22549;SDS011;11441;57.164;-2.120;2023-04-01T03:56:43;8.60;;;2.03;;
22549;SDS011;11441;57.164;-2.120;2023-04-01T03:59:29;7.17;;;1.43;;
22549;SDS011;11441;57.164;-2.120;2023-04-01T04:01:56;11.37;;;1.90;;
22549;SDS011;11441;57.164;-2.120;2023-04-01T04:04:23;11.70;;;2.37;;
22549;SDS011;11441;57.164;-2.120;2023-04-01T04:06:50;9.80;;;1.87;;
22549;SDS011;11441;57.164;-2.120;2023-04-01T04:09:20;7.20;;;1.57;;
22549;SDS011;11441;57.164;-2.120;2023-04-01T04:11:47;6.53;;;1.20;;
22549;SDS011;11441;57.164;-2.120;2023-04-01T04:14:14;12.13;;;2.10;;
22549;SDS011;11441;57.164;-2.120;2023-04-01T04:16:42;8.37;;;2.17;;
22549;SDS011;11441;57.164;-2.120;2023-04-01T04:19:09;8.83;;;1.73;;
22549;SDS011;11441;57.164;-2.120;2023-04-01T04:21:36;17.77;;;3.07;;
22549;SDS011;11441;57.164;-2.120;2023-04-01T04:24:03;9.87;;;2.40;;
22549;SDS011;11441;57.164;-2.120;2023-04-01T04:26:50;3.90;;;1.40;;
22549;SDS011;11441;57.164;-2.120;2023-04-01T04:29:17;13.33;;;2.10;;
22549;SDS011;11441;57.164;-2.120;2023-04-01T04:31:44;10.87;;;2.20;;
22549;SDS011;11441;57.164;-2.120;2023-04-01T04:34:11;8.40;;;1.57;;
22549;SDS011;11441;57.164;-2.120;2023-04-01T04:36:38;6.97;;;1.63;;
22549;SDS011;11441;57.164;-2.120;2023-04-01T04:39:05;7.50;;;2.20;;
22549;SDS011;11441;57.164;-2.120;2023-04-01T04:41:33;7.00;;;1.50;;
22549;SDS011;11441;57.164;-2.120;2023-04-01T04:44:03;12.17;;;2.50;;
22549;SDS011;11441;57.164;-2.120;2023-04-01T04:46:31;4.10;;;1.27;;
22549;SDS011;11441;57.164;-2.120;2023-04-01T04:49:10;8.03;;;1.30;;
22549;SDS011;11441;57.164;-2.120;2023-04-01T04:51:37;5.83;;;1.60;;
22549;SDS011;11441;57.164;-2.120;2023-04-01T04:54:04;6.97;;;1.53;;
22549;SDS011;11441;57.164;-2.120;2023-04-01T04:56:47;7.53;;;1.57;;
22549;SDS011;11441;57.164;-2.120;2023-04-01T04:59:14;7.50;;;2.73;;
22549;SDS011;11441;57.164;-2.120;2023-04-01T05:01:50;7.90;;;1.43;;
22549;SDS011;11441;57.164;-2.120;2023-04-01T05:04:17;8.93;;;2.03;;
22549;SDS011;11441;57.164;-2.120;2023-04-01T05:06:44;6.53;;;1.83;;
22549;SDS011;11441;57.164;-2.120;2023-04-01T05:09:11;11.80;;;2.03;;
22549;SDS011;11441;57.164;-2.120;2023-04-01T05:11:38;6.57;;;1.93;;
22549;SDS011;11441;57.164;-2.120;2023-04-01T05:14:25;10.70;;;2.07;;
22549;SDS011;11441;57.164;-2.120;2023-04-01T05:17:02;14.27;;;2.17;;
22549;SDS011;11441;57.164;-2.120;2023-04-01T05:19:29;14.17;;;2.63;;
22549;SDS011;11441;57.164;-2.120;2023-04-01T05:21:56;11.50;;;2.20;;
22549;SDS011;11441;57.164;-2.120;2023-04-01T05:24:23;7.30;;;2.00;;
22549;SDS011;11441;57.164;-2.120;2023-04-01T05:26:50;10.73;;;2.20;;
22549;SDS011;11441;57.164;-2.120;2023-04-01T05:29:17;14.37;;;2.57;;
22549;SDS011;11441;57.164;-2.120;2023-04-01T05:31:47;13.67;;;2.77;;
22549;SDS011;11441;57.164;-2.120;2023-04-01T05:34:14;6.00;;;1.60;;
22549;SDS011;11441;57.164;-2.120;2023-04-01T05:36:41;12.07;;;2.10;;
22549;SDS011;11441;57.164;-2.120;2023-04-01T05:39:09;16.73;;;2.50;;
22549;SDS011;11441;57.164;-2.120;2023-04-01T05:41:36;9.83;;;1.50;;
22549;SDS011;11441;57.164;-2.120;2023-04-01T05:44:04;14.50;;;2.70;;
22549;SDS011;11441;57.164;-2.120;2023-04-01T05:46:40;8.40;;;2.17;;
22549;SDS011;11441;57.164;-2.120;2023-04-01T05:49:16;9.07;;;2.23;;
22549;SDS011;11441;57.164;-2.120;2023-04-01T05:51:43;18.13;;;3.00;;
22549;SDS011;11441;57.164;-2.120;2023-04-01T05:54:10;10.40;;;2.40;;
22549;SDS011;11441;57.164;-2.120;2023-04-01T05:56:38;11.73;;;2.87;;
22549;SDS011;11441;57.164;-2.120;2023-04-01T05:59:05;13.03;;;2.60;;
22549;SDS011;11441;57.164;-2.120;2023-04-01T06:01:32;14.60;;;3.83;;
22549;SDS011;11441;57.164;-2.120;2023-04-01T06:03:59;13.07;;;3.13;;
22549;SDS011;11441;57.164;-2.120;2023-04-01T06:06:27;5.57;;;1.67;;
22549;SDS011;11441;57.164;-2.120;2023-04-01T06:09:25;11.17;;;2.33;;
22549;SDS011;11441;57.164;-2.120;2023-04-01T06:25:29;11.90;;;2.90;;
22549;SDS011;11441;57.164;-2.120;2023-04-01T06:31:05;26.70;;;4.53;;
22549;SDS011;11441;57.164;-2.120;2023-04-01T06:36:08;11.60;;;2.87;;
22549;SDS011;11441;57.164;-2.120;2023-04-01T06:38:56;19.17;;;3.83;;
22549;SDS011;11441;57.164;-2.120;2023-04-01T06:41:51;17.13;;;2.60;;
22549;SDS011;11441;57.164;-2.120;2023-04-01T06:53:35;12.53;;;2.87;;
22549;SDS011;11441;57.164;-2.120;2023-04-01T06:56:37;17.00;;;4.83;;
22549;SDS011;11441;57.164;-2.120;2023-04-01T06:59:28;10.23;;;2.30;;
22549;SDS011;11441;57.164;-2.120;2023-04-01T07:02:15;26.00;;;3.20;;
22549;SDS011;11441;57.164;-2.120;2023-04-01T07:04:46;15.50;;;3.57;;
22549;SDS011;11441;57.164;-2.120;2023-04-01T07:07:24;10.87;;;2.57;;
22549;SDS011;11441;57.164;-2.120;2023-04-01T07:09:58;12.43;;;3.00;;
22549;SDS011;11441;57.164;-2.120;2023-04-01T07:12:40;9.37;;;2.80;;
22549;SDS011;11441;57.164;-2.120;2023-04-01T07:15:42;10.83;;;2.70;;
22549;SDS011;11441;57.164;-2.120;2023-04-01T07:18:30;11.33;;;2.20;;
22549;SDS011;11441;57.164;-2.120;2023-04-01T07:21:10;17.42;;;3.78;;
22549;SDS011;11441;57.164;-2.120;2023-04-01T07:24:14;15.83;;;2.50;;
22549;SDS011;11441;57.164;-2.120;2023-04-01T07:27:00;16.07;;;3.23;;
22549;SDS011;11441;57.164;-2.120;2023-04-01T07:29:30;13.63;;;3.30;;
22549;SDS011;11441;57.164;-2.120;2023-04-01T07:43:22;13.80;;;3.33;;
22549;SDS011;11441;57.164;-2.120;2023-04-01T07:49:19;14.63;;;3.50;;
22549;SDS011;11441;57.164;-2.120;2023-04-01T07:55:29;14.70;;;3.40;;
22549;SDS011;11441;57.164;-2.120;2023-04-01T08:01:52;22.27;;;3.67;;
22549;SDS011;11441;57.164;-2.120;2023-04-01T08:04:50;15.03;;;3.43;;
22549;SDS011;11441;57.164;-2.120;2023-04-01T08:07:30;13.17;;;3.13;;
22549;SDS011;11441;57.164;-2.120;2023-04-01T08:10:40;21.57;;;3.67;;
22549;SDS011;11441;57.164;-2.120;2023-04-01T08:16:45;13.27;;;2.80;;
22549;SDS011;11441;57.164;-2.120;2023-04-01T08:25:25;17.97;;;3.87;;
22549;SDS011;11441;57.164;-2.120;2023-04-01T08:27:57;16.20;;;2.90;;
22549;SDS011;11441;57.164;-2.120;2023-04-01T08:30:57;16.13;;;3.23;;
22549;SDS011;11441;57.164;-2.120;2023-04-01T08:33:31;13.23;;;3.60;;
22549;SDS011;11441;57.164;-2.120;2023-04-01T08:36:05;23.53;;;4.10;;
22549;SDS011;11441;57.164;-2.120;2023-04-01T08:38:43;23.33;;;3.53;;
22549;SDS011;11441;57.164;-2.120;2023-04-01T08:56:09;20.97;;;4.03;;
22549;SDS011;11441;57.164;-2.120;2023-04-01T09:27:57;11.83;;;2.43;;
22549;SDS011;11441;57.164;-2.120;2023-04-01T09:39:44;10.93;;;3.93;;
22549;SDS011;11441;57.164;-2.120;2023-04-01T09:44:51;21.83;;;3.93;;
22549;SDS011;11441;57.164;-2.120;2023-04-01T09:47:54;24.03;;;4.83;;
22549;SDS011;11441;57.164;-2.120;2023-04-01T10:03:30;21.83;;;4.07;;
22549;SDS011;11441;57.164;-2.120;2023-04-01T10:06:24;16.43;;;3.60;;
22549;SDS011;11441;57.164;-2.120;2023-04-01T10:18:24;19.73;;;3.27;;
22549;SDS011;11441;57.164;-2.120;2023-04-01T10:30:07;22.83;;;3.70;;
22549;SDS011;11441;57.164;-2.120;2023-04-01T10:50:23;9.37;;;2.67;;
22549;SDS011;11441;57.164;-2.120;2023-04-01T10:56:34;17.33;;;3.40;;
22549;SDS011;11441;57.164;-2.120;2023-04-01T11:21:28;13.27;;;2.97;;
22549;SDS011;11441;57.164;-2.120;2023-04-01T11:33:02;10.88;;;2.47;;
22549;SDS011;11441;57.164;-2.120;2023-04-01T11:38:19;22.10;;;2.83;;
22549;SDS011;11441;57.164;-2.120;2023-04-01T11:44:27;15.32;;;3.83;;
22549;SDS011;11441;57.164;-2.120;2023-04-01T11:50:03;18.92;;;3.42;;
22549;SDS011;11441;57.164;-2.120;2023-04-01T11:55:44;10.25;;;2.47;;
22549;SDS011;11441;57.164;-2.120;2023-04-01T12:04:15;8.63;;;3.13;;
22549;SDS011;11441;57.164;-2.120;2023-04-01T12:06:51;11.52;;;2.85;;
22549;SDS011;11441;57.164;-2.120;2023-04-01T12:09:58;8.15;;;1.98;;
22549;SDS011;11441;57.164;-2.120;2023-04-01T12:13:34;11.40;;;2.80;;
22549;SDS011;11441;57.164;-2.120;2023-04-01T12:38:16;23.88;;;3.90;;
22549;SDS011;11441;57.164;-2.120;2023-04-01T12:53:25;14.27;;;3.80;;
22549;SDS011;11441;57.164;-2.120;2023-04-01T13:02:05;10.40;;;3.30;;
22549;SDS011;11441;57.164;-2.120;2023-04-01T13:05:15;10.98;;;2.75;;
22549;SDS011;11441;57.164;-2.120;2023-04-01T13:13:53;17.10;;;2.83;;
22549;SDS011;11441;57.164;-2.120;2023-04-01T13:23:05;24.10;;;4.57;;
22549;SDS011;11441;57.164;-2.120;2023-04-01T13:28:43;12.55;;;2.55;;
22549;SDS011;11441;57.164;-2.120;2023-04-01T13:31:38;12.40;;;2.28;;
22549;SDS011;11441;57.164;-2.120;2023-04-01T13:34:29;19.87;;;4.03;;
22549;SDS011;11441;57.164;-2.120;2023-04-01T13:43:18;15.80;;;3.40;;
22549;SDS011;11441;57.164;-2.120;2023-04-01T13:54:27;17.25;;;3.80;;
22549;SDS011;11441;57.164;-2.120;2023-04-01T13:57:20;12.35;;;3.17;;
22549;SDS011;11441;57.164;-2.120;2023-04-01T14:00:10;16.45;;;2.92;;
22549;SDS011;11441;57.164;-2.120;2023-04-01T14:11:39;19.92;;;3.92;;
22549;SDS011;11441;57.164;-2.120;2023-04-01T14:17:30;16.55;;;3.97;;
22549;SDS011;11441;57.164;-2.120;2023-04-01T14:44:16;18.40;;;3.20;;
22549;SDS011;11441;57.164;-2.120;2023-04-01T14:47:24;26.48;;;5.15;;
22549;SDS011;11441;57.164;-2.120;2023-04-01T14:50:13;17.52;;;3.40;;
22549;SDS011;11441;57.164;-2.120;2023-04-01T14:52:46;19.38;;;3.65;;
22549;SDS011;11441;57.164;-2.120;2023-04-01T14:55:54;17.97;;;4.30;;
22549;SDS011;11441;57.164;-2.120;2023-04-01T14:58:22;19.95;;;4.07;;
22549;SDS011;11441;57.164;-2.120;2023-04-01T15:00:58;25.52;;;4.80;;
22549;SDS011;11441;57.164;-2.120;2023-04-01T15:03:50;19.37;;;4.17;;
22549;SDS011;11441;57.164;-2.120;2023-04-01T15:06:41;10.25;;;2.72;;
22549;SDS011;11441;57.164;-2.120;2023-04-01T15:09:40;19.58;;;3.55;;
22549;SDS011;11441;57.164;-2.120;2023-04-01T15:12:38;18.20;;;4.45;;
22549;SDS011;11441;57.164;-2.120;2023-04-01T15:24:12;21.48;;;5.18;;
22549;SDS011;11441;57.164;-2.120;2023-04-01T15:26:49;24.20;;;4.43;;
22549;SDS011;11441;57.164;-2.120;2023-04-01T15:34:51;12.30;;;3.95;;
22549;SDS011;11441;57.164;-2.120;2023-04-01T15:37:30;17.55;;;3.90;;
22549;SDS011;11441;57.164;-2.120;2023-04-01T15:42:48;28.38;;;4.38;;
22549;SDS011;11441;57.164;-2.120;2023-04-01T15:50:48;27.65;;;5.22;;
22549;SDS011;11441;57.164;-2.120;2023-04-01T15:53:34;20.83;;;3.88;;
22549;SDS011;11441;57.164;-2.120;2023-04-01T15:56:19;15.40;;;3.83;;
22549;SDS011;11441;57.164;-2.120;2023-04-01T16:13:22;14.13;;;3.92;;
22549;SDS011;11441;57.164;-2.120;2023-04-01T16:16:02;14.13;;;3.50;;
22549;SDS011;11441;57.164;-2.120;2023-04-01T16:21:38;17.98;;;3.83;;
22549;SDS011;11441;57.164;-2.120;2023-04-01T16:24:14;14.07;;;3.50;;
22549;SDS011;11441;57.164;-2.120;2023-04-01T16:29:47;20.40;;;4.60;;
22549;SDS011;11441;57.164;-2.120;2023-04-01T16:32:27;20.02;;;5.10;;
22549;SDS011;11441;57.164;-2.120;2023-04-01T16:37:53;25.13;;;5.68;;
22549;SDS011;11441;57.164;-2.120;2023-04-01T16:43:21;19.80;;;4.00;;
22549;SDS011;11441;57.164;-2.120;2023-04-01T16:51:46;23.80;;;4.25;;
22549;SDS011;11441;57.164;-2.120;2023-04-01T17:03:44;15.65;;;2.78;;
22549;SDS011;11441;57.164;-2.120;2023-04-01T17:09:21;26.85;;;4.30;;
22549;SDS011;11441;57.164;-2.120;2023-04-01T17:14:57;26.25;;;4.50;;
22549;SDS011;11441;57.164;-2.120;2023-04-01T17:18:01;12.63;;;3.28;;
22549;SDS011;11441;57.164;-2.120;2023-04-01T17:21:02;16.88;;;3.83;;
22549;SDS011;11441;57.164;-2.120;2023-04-01T17:23:38;26.60;;;5.03;;
22549;SDS011;11441;57.164;-2.120;2023-04-01T17:29:21;15.70;;;4.47;;
22549;SDS011;11441;57.164;-2.120;2023-04-01T17:32:00;27.35;;;5.07;;
22549;SDS011;11441;57.164;-2.120;2023-04-01T17:34:42;29.45;;;4.78;;
22549;SDS011;11441;57.164;-2.120;2023-04-01T17:42:48;19.50;;;5.18;;
22549;SDS011;11441;57.164;-2.120;2023-04-01T17:45:56;24.27;;;5.10;;
22549;SDS011;11441;57.164;-2.120;2023-04-01T17:51:06;25.05;;;5.43;;
22549;SDS011;11441;57.164;-2.120;2023-04-01T17:59:28;27.25;;;5.18;;
22549;SDS011;11441;57.164;-2.120;2023-04-01T18:08:10;17.75;;;3.70;;
22549;SDS011;11441;57.164;-2.120;2023-04-01T18:13:40;20.00;;;3.77;;
22549;SDS011;11441;57.164;-2.120;2023-04-01T18:21:47;20.53;;;4.47;;
22549;SDS011;11441;57.164;-2.120;2023-04-01T18:25:02;17.85;;;4.43;;
22549;SDS011;11441;57.164;-2.120;2023-04-01T18:27:33;19.97;;;4.07;;
22549;SDS011;11441;57.164;-2.120;2023-04-01T18:38:31;24.67;;;4.60;;
22549;SDS011;11441;57.164;-2.120;2023-04-01T18:52:22;23.70;;;4.43;;
22549;SDS011;11441;57.164;-2.120;2023-04-01T18:57:23;23.00;;;5.37;;
22549;SDS011;11441;57.164;-2.120;2023-04-01T18:59:55;21.07;;;5.07;;
22549;SDS011;11441;57.164;-2.120;2023-04-01T19:02:43;26.83;;;4.70;;
22549;SDS011;11441;57.164;-2.120;2023-04-01T19:05:37;22.75;;;4.53;;
22549;SDS011;11441;57.164;-2.120;2023-04-01T19:11:01;15.93;;;3.90;;
22549;SDS011;11441;57.164;-2.120;2023-04-01T19:21:58;26.85;;;4.72;;
22549;SDS011;11441;57.164;-2.120;2023-04-01T19:27:37;19.70;;;4.00;;
22549;SDS011;11441;57.164;-2.120;2023-04-01T19:38:52;20.95;;;5.95;;
22549;SDS011;11441;57.164;-2.120;2023-04-01T19:42:14;32.77;;;8.67;;
22549;SDS011;11441;57.164;-2.120;2023-04-01T19:50:22;34.05;;;8.65;;
22549;SDS011;11441;57.164;-2.120;2023-04-01T19:53:31;32.47;;;7.65;;
22549;SDS011;11441;57.164;-2.120;2023-04-01T19:56:12;20.13;;;5.87;;
22549;SDS011;11441;57.164;-2.120;2023-04-01T19:58:57;45.75;;;6.88;;
22549;SDS011;11441;57.164;-2.120;2023-04-01T20:01:36;31.13;;;6.65;;
22549;SDS011;11441;57.164;-2.120;2023-04-01T20:04:13;28.73;;;5.63;;
22549;SDS011;11441;57.164;-2.120;2023-04-01T20:18:12;34.90;;;7.87;;
22549;SDS011;11441;57.164;-2.120;2023-04-01T20:20:52;32.65;;;7.35;;
22549;SDS011;11441;57.164;-2.120;2023-04-01T20:26:26;35.53;;;6.70;;
22549;SDS011;11441;57.164;-2.120;2023-04-01T20:31:42;41.03;;;13.48;;
22549;SDS011;11441;57.164;-2.120;2023-04-01T20:37:06;26.52;;;6.28;;
22549;SDS011;11441;57.164;-2.120;2023-04-01T20:40:02;38.67;;;8.55;;
22549;SDS011;11441;57.164;-2.120;2023-04-01T20:43:04;43.33;;;9.90;;
22549;SDS011;11441;57.164;-2.120;2023-04-01T20:48:38;41.27;;;8.30;;
22549;SDS011;11441;57.164;-2.120;2023-04-01T20:51:24;35.45;;;8.52;;
22549;SDS011;11441;57.164;-2.120;2023-04-01T20:54:22;38.80;;;8.20;;
22549;SDS011;11441;57.164;-2.120;2023-04-01T20:57:19;49.53;;;9.60;;
22549;SDS011;11441;57.164;-2.120;2023-04-01T21:00:40;38.40;;;7.23;;
22549;SDS011;11441;57.164;-2.120;2023-04-01T21:03:08;48.03;;;9.53;;
22549;SDS011;11441;57.164;-2.120;2023-04-01T21:11:22;39.67;;;9.90;;
22549;SDS011;11441;57.164;-2.120;2023-04-01T21:22:27;36.73;;;6.80;;
22549;SDS011;11441;57.164;-2.120;2023-04-01T21:30:30;23.10;;;5.53;;
22549;SDS011;11441;57.164;-2.120;2023-04-01T21:41:19;19.50;;;4.30;;
22549;SDS011;11441;57.164;-2.120;2023-04-01T21:49:16;22.43;;;4.00;;
22549;SDS011;11441;57.164;-2.120;2023-04-01T22:00:13;21.77;;;5.10;;
22549;SDS011;11441;57.164;-2.120;2023-04-01T22:11:19;29.77;;;5.27;;
22549;SDS011;11441;57.164;-2.120;2023-04-01T22:14:16;22.97;;;6.73;;
22549;SDS011;11441;57.164;-2.120;2023-04-01T22:19:49;27.30;;;5.80;;
22549;SDS011;11441;57.164;-2.120;2023-04-01T22:28:25;19.90;;;4.30;;
22549;SDS011;11441;57.164;-2.120;2023-04-01T22:30:59;33.77;;;6.10;;
22549;SDS011;11441;57.164;-2.120;2023-04-01T22:38:52;20.63;;;4.60;;
22549;SDS011;11441;57.164;-2.120;2023-04-01T22:43:55;19.13;;;4.83;;
22549;SDS011;11441;57.164;-2.120;2023-04-01T22:49:22;12.63;;;4.20;;
22549;SDS011;11441;57.164;-2.120;2023-04-01T22:51:57;20.30;;;4.13;;
22549;SDS011;11441;57.164;-2.120;2023-04-01T22:54:49;23.57;;;4.57;;
22549;SDS011;11441;57.164;-2.120;2023-04-01T23:05:39;25.67;;;4.93;;
22549;SDS011;11441;57.164;-2.120;2023-04-01T23:11:09;22.47;;;5.87;;
22549;SDS011;11441;57.164;-2.120;2023-04-01T23:13:50;24.83;;;5.13;;
22549;SDS011;11441;57.164;-2.120;2023-04-01T23:16:33;24.70;;;6.13;;
22549;SDS011;11441;57.164;-2.120;2023-04-01T23:19:29;27.60;;;6.30;;
22549;SDS011;11441;57.164;-2.120;2023-04-01T23:22:15;20.50;;;5.72;;
22549;SDS011;11441;57.164;-2.120;2023-04-01T23:24:49;25.83;;;6.27;;
22549;SDS011;11441;57.164;-2.120;2023-04-01T23:27:40;25.20;;;5.17;;
22549;SDS011;11441;57.164;-2.120;2023-04-01T23:38:33;27.53;;;6.40;;
22549;SDS011;11441;57.164;-2.120;2023-04-01T23:41:01;20.55;;;5.18;;
22549;SDS011;11441;57.164;-2.120;2023-04-01T23:43:49;18.43;;;5.53;;
22549;SDS011;11441;57.164;-2.120;2023-04-01T23:46:34;25.30;;;6.10;;
22549;SDS011;11441;57.164;-2.120;2023-04-01T23:49:03;27.63;;;5.87;;
22549;SDS011;11441;57.164;-2.120;2023-04-01T23:51:46;24.20;;;6.20;;
22549;SDS011;11441;57.164;-2.120;2023-04-01T23:54:23;35.30;;;6.40;;
22549;SDS011;11441;57.164;-2.120;2023-04-01T23:56:59;32.17;;;8.33;;
